Time;durP1;ratioP1;P1;durP2;ratioP2;P2;SDS_P1;SDS_P2;PMS_P1;PMS_P2;Temp;Humidity;BMP_temperature;BMP_pressure;BME280_temperature;BME280_humidity;BME280_pressure;Samples;Min_cycle;Max_cycle;Signal;HPM_P1;HPM_P2
2022/08/31 00:05:40;;;;;;;;;;;;;;;-144.99;72.69;52291.16;4966032;28;20377;-71
2022/08/31 00:08:09;;;;;;;;;;;;;;;-144.99;73.25;52305.41;4961660;28;20386;-71
2022/08/31 00:10:39;;;;;;;;;;;;;;;-144.99;73.65;52285.03;4968383;28;20764;-70
2022/08/31 00:13:06;;;;;;;;;;;;;;;-144.99;74.30;52227.97;4964713;28;20409;-71
2022/08/31 00:15:33;;;;;;;;;;;;;;;-144.99;74.83;52268.72;4970786;28;19942;-70
2022/08/31 00:17:59;;;;;;;;;;;;;;;-144.99;75.33;52256.50;4971671;28;20024;-70
2022/08/31 00:20:27;;;;;;;;;;;;;;;-144.99;75.87;52244.28;4969622;28;20025;-71
2022/08/31 00:22:54;;;;;;;;;;;;;;;-144.99;76.29;52276.88;4967088;28;20337;-71
2022/08/31 00:25:22;;;;;;;;;;;;;;;-144.99;76.86;52256.50;4970848;28;19958;-71
2022/08/31 00:27:49;;;;;;;;;;;;;;;-144.99;77.35;52301.34;4972292;28;19926;-73
2022/08/31 00:30:15;;;;;;;;;;;;;;;-144.99;77.77;52276.88;4970257;28;20372;-72
2022/08/31 00:32:42;;;;;;;;;;;;;;;-144.99;78.21;52268.72;4967560;28;19936;-71
2022/08/31 00:35:08;;;;;;;;;;;;;;;-144.99;78.74;52258.53;4966786;28;20513;-71
2022/08/31 00:37:35;;;;;;;;;;;;;;;-144.99;79.31;52293.19;4969343;28;19936;-71
2022/08/31 00:40:01;;;;;;;;;;;;;;;-144.99;79.93;52305.41;4969845;28;19933;-71
2022/08/31 00:42:29;;;;;;;;;;;;;;;-144.99;80.28;52272.81;4967517;28;19930;-72
2022/08/31 00:44:56;;;;;;;;;;;;;;;-144.99;80.75;52268.72;4967333;28;20033;-71
2022/08/31 00:47:22;;;;;;;;;;;;;;;-144.99;80.85;52280.97;4971226;28;20513;-71
2022/08/31 00:49:50;;;;;;;;;;;;;;;-144.99;81.34;52266.69;4971346;28;20020;-71
2022/08/31 00:52:20;;;;;;;;;;;;;;;-144.99;81.38;52295.22;4961748;28;19973;-71
2022/08/31 00:54:48;;;;;;;;;;;;;;;-144.99;81.37;52321.72;4963664;28;19930;-71
2022/08/31 00:57:15;;;;;;;;;;;;;;;-144.99;81.46;52232.03;4965011;28;19927;-71
2022/08/31 00:59:44;;;;;;;;;;;;;;;-144.99;81.59;52260.56;4966654;28;20303;-72
2022/08/31 01:02:10;;;;;;;;;;;;;;;-144.99;81.82;52272.81;4966890;28;19985;-71
2022/08/31 01:04:37;;;;;;;;;;;;;;;-144.99;82.14;52289.13;4961068;28;20511;-70
2022/08/31 01:07:04;;;;;;;;;;;;;;;-144.99;82.10;52311.53;4964137;28;20664;-70
2022/08/31 01:09:32;;;;;;;;;;;;;;;-144.99;82.16;52295.22;4970603;28;19926;-70
2022/08/31 01:11:59;;;;;;;;;;;;;;;-144.99;82.52;52256.50;4970696;28;20339;-70
2022/08/31 01:14:25;;;;;;;;;;;;;;;-144.99;82.54;52236.13;4965495;28;19934;-71
2022/08/31 01:16:54;;;;;;;;;;;;;;;-144.99;82.81;52285.03;4966751;28;19926;-71
2022/08/31 01:19:27;;;;;;;;;;;;;;;-144.99;82.78;52266.69;4964345;28;19930;-70
2022/08/31 01:21:57;;;;;;;;;;;;;;;-144.99;82.99;52280.97;4965796;28;20407;-71
2022/08/31 01:24:26;;;;;;;;;;;;;;;-144.99;83.04;52268.72;4964246;28;19934;-70
2022/08/31 01:26:53;;;;;;;;;;;;;;;-144.99;83.45;52301.34;4962133;28;19933;-70
2022/08/31 01:29:20;;;;;;;;;;;;;;;-144.99;83.82;52219.81;4965307;28;19975;-71
2022/08/31 01:31:47;;;;;;;;;;;;;;;-144.99;84.07;52264.66;4968295;28;19926;-71
2022/08/31 01:34:14;;;;;;;;;;;;;;;-144.99;84.68;52297.25;4962268;28;19936;-70
2022/08/31 01:36:42;;;;;;;;;;;;;;;-144.99;84.70;52268.72;4963292;28;19936;-72
2022/08/31 01:39:09;;;;;;;;;;;;;;;-144.99;84.77;52252.44;4962621;28;19934;-72
2022/08/31 01:41:40;;;;;;;;;;;;;;;-144.99;84.75;52227.97;4961332;28;19933;-71
2022/08/31 01:44:07;;;;;;;;;;;;;;;-144.99;84.87;52258.53;4964833;28;20444;-70
2022/08/31 01:46:33;;;;;;;;;;;;;;;-144.99;84.88;52276.88;4962180;28;20301;-70
2022/08/31 01:49:00;;;;;;;;;;;;;;;-144.99;85.18;52293.19;4960736;28;19933;-70
2022/08/31 01:51:26;;;;;;;;;;;;;;;-144.99;85.40;52236.13;4966809;28;20412;-70
2022/08/31 01:53:53;;;;;;;;;;;;;;;-144.99;85.40;52289.13;4961066;28;20032;-70
2022/08/31 01:56:21;;;;;;;;;;;;;;;-144.99;85.67;52236.13;4967116;28;20016;-70
2022/08/31 01:58:49;;;;;;;;;;;;;;;-144.99;85.75;52295.22;4969996;28;19936;-72
2022/08/31 02:01:15;;;;;;;;;;;;;;;-144.99;85.93;52276.88;4967258;28;19926;-72
2022/08/31 02:03:42;;;;;;;;;;;;;;;-144.99;85.72;52289.13;4961580;28;19930;-71
2022/08/31 02:06:08;;;;;;;;;;;;;;;-144.99;86.09;52244.28;4960564;28;19936;-71
2022/08/31 02:08:35;;;;;;;;;;;;;;;-144.99;85.93;52283.00;4962481;28;19965;-72
2022/08/31 02:11:02;;;;;;;;;;;;;;;-144.99;85.89;52266.69;4965749;28;19936;-73
2022/08/31 02:13:28;;;;;;;;;;;;;;;-144.99;86.03;52289.13;4968363;28;19926;-71
2022/08/31 02:15:56;;;;;;;;;;;;;;;-144.99;86.19;52264.66;4968342;28;19933;-70
2022/08/31 02:18:22;;;;;;;;;;;;;;;-144.99;86.37;52256.50;4967146;28;20286;-72
2022/08/31 02:20:48;;;;;;;;;;;;;;;-144.99;86.28;52272.81;4967608;28;19926;-70
2022/08/31 02:23:15;;;;;;;;;;;;;;;-144.99;86.62;52256.50;4964501;28;19931;-71
2022/08/31 02:25:41;;;;;;;;;;;;;;;-144.99;86.99;52262.63;4960539;28;20338;-70
2022/08/31 02:28:11;;;;;;;;;;;;;;;-144.99;87.62;52272.81;4963204;28;19926;-71
2022/08/31 02:30:37;;;;;;;;;;;;;;;-144.99;87.64;52268.72;4965342;28;19926;-70
2022/08/31 02:33:05;;;;;;;;;;;;;;;-144.99;87.72;52268.72;4968329;28;19968;-69
2022/08/31 02:35:31;;;;;;;;;;;;;;;-144.99;87.20;52244.28;4965986;28;19933;-68
2022/08/31 02:37:58;;;;;;;;;;;;;;;-144.99;86.71;52232.03;4969458;28;19933;-70
2022/08/31 02:40:24;;;;;;;;;;;;;;;-144.99;86.61;52280.97;4971274;28;19926;-70
2022/08/31 02:42:51;;;;;;;;;;;;;;;-144.99;86.51;52256.50;4969091;28;19926;-70
2022/08/31 02:45:17;;;;;;;;;;;;;;;-144.99;86.30;52295.22;4965175;28;19926;-71
2022/08/31 02:47:43;;;;;;;;;;;;;;;-144.99;85.79;52276.88;4968628;28;20386;-72
2022/08/31 02:50:11;;;;;;;;;;;;;;;-144.99;85.43;52280.97;4966199;28;19926;-69
2022/08/31 02:52:37;;;;;;;;;;;;;;;-144.99;85.59;52236.13;4965926;28;19926;-69
2022/08/31 02:55:04;;;;;;;;;;;;;;;-144.99;85.81;52268.72;4965346;28;20440;-69
2022/08/31 02:57:31;;;;;;;;;;;;;;;-144.99;85.95;52289.13;4961971;28;20000;-69
2022/08/31 02:59:57;;;;;;;;;;;;;;;-144.99;86.00;52252.44;4964948;28;19930;-69
2022/08/31 03:02:24;;;;;;;;;;;;;;;-144.99;85.75;52291.16;4964282;28;19932;-70
2022/08/31 03:04:51;;;;;;;;;;;;;;;-144.99;86.00;52260.56;4966689;28;19941;-70
2022/08/31 03:07:18;;;;;;;;;;;;;;;-144.99;86.09;52289.13;4964486;28;20032;-69
2022/08/31 03:09:45;;;;;;;;;;;;;;;-144.99;86.27;52260.56;4962018;28;19932;-69
2022/08/31 03:12:12;;;;;;;;;;;;;;;-144.99;86.56;52305.41;4965844;28;19935;-70
2022/08/31 03:14:38;;;;;;;;;;;;;;;-144.99;87.35;52258.53;4968069;28;19941;-70
2022/08/31 03:17:04;;;;;;;;;;;;;;;-144.99;87.21;52264.66;4958053;28;19937;-71
2022/08/31 03:19:31;;;;;;;;;;;;;;;-144.99;87.22;52285.03;4961086;28;20010;-71
2022/08/31 03:21:57;;;;;;;;;;;;;;;-144.99;87.22;52285.03;4958215;28;20564;-70
2022/08/31 03:24:26;;;;;;;;;;;;;;;-144.99;87.46;52285.03;4966471;28;19926;-71
2022/08/31 03:26:53;;;;;;;;;;;;;;;-144.99;87.49;52321.72;4960396;28;19967;-71
2022/08/31 03:29:19;;;;;;;;;;;;;;;-144.99;87.61;52256.50;4969260;28;20028;-71
2022/08/31 03:31:46;;;;;;;;;;;;;;;-144.99;87.51;52317.66;4964760;28;20509;-71
2022/08/31 03:34:12;;;;;;;;;;;;;;;-144.99;87.30;52297.25;4968369;28;19927;-70
2022/08/31 03:36:39;;;;;;;;;;;;;;;-144.99;87.13;52280.97;4964043;28;20020;-71
2022/08/31 03:39:05;;;;;;;;;;;;;;;-144.99;87.09;52287.06;4961529;28;20017;-71
2022/08/31 03:41:33;;;;;;;;;;;;;;;-144.99;87.13;52301.34;4963417;28;20033;-71
2022/08/31 03:44:00;;;;;;;;;;;;;;;-144.99;87.32;52285.03;4962270;28;19926;-70
2022/08/31 03:46:27;;;;;;;;;;;;;;;-144.99;87.58;52252.44;4964395;28;19934;-71
2022/08/31 03:48:54;;;;;;;;;;;;;;;-144.99;88.04;52305.41;4973451;28;19970;-72
2022/08/31 03:51:20;;;;;;;;;;;;;;;-144.99;87.91;52315.59;4973658;28;19941;-72
2022/08/31 03:53:47;;;;;;;;;;;;;;;-144.99;88.11;52309.50;4973293;28;19933;-72
2022/08/31 03:56:13;;;;;;;;;;;;;;;-144.99;88.02;52276.88;4971301;28;20305;-72
2022/08/31 03:58:41;;;;;;;;;;;;;;;-144.99;88.46;52285.03;4968805;28;19930;-71
2022/08/31 04:01:07;;;;;;;;;;;;;;;-144.99;88.63;52280.97;4968202;28;20436;-72
2022/08/31 04:03:35;;;;;;;;;;;;;;;-144.99;88.76;52317.66;4970345;28;20008;-71
2022/08/31 04:06:01;;;;;;;;;;;;;;;-144.99;88.92;52305.41;4964367;28;19941;-71
2022/08/31 04:08:28;;;;;;;;;;;;;;;-144.99;89.31;52293.19;4966723;28;20005;-71
2022/08/31 04:10:54;;;;;;;;;;;;;;;-144.99;89.49;52287.06;4968664;28;19914;-71
2022/08/31 04:13:22;;;;;;;;;;;;;;;-144.99;89.74;52295.22;4964142;28;19930;-71
2022/08/31 04:15:50;;;;;;;;;;;;;;;-144.99;89.60;52297.25;4968737;28;19930;-72
2022/08/31 04:18:16;;;;;;;;;;;;;;;-144.99;90.04;52309.50;4963781;28;20412;-72
2022/08/31 04:20:42;;;;;;;;;;;;;;;-144.99;90.20;52276.88;4967263;28;20017;-76
2022/08/31 04:23:10;;;;;;;;;;;;;;;-144.99;90.86;52293.19;4969234;28;19926;-76
2022/08/31 04:25:39;;;;;;;;;;;;;;;-144.99;91.45;52297.25;4964390;28;19926;-76
2022/08/31 04:28:07;;;;;;;;;;;;;;;-144.99;92.07;52268.72;4970721;28;19930;-75
2022/08/31 04:30:34;;;;;;;;;;;;;;;-144.99;92.48;52285.03;4964763;28;19926;-75
2022/08/31 04:33:02;;;;;;;;;;;;;;;-144.99;92.84;52272.81;4964002;28;19926;-74
2022/08/31 04:35:28;;;;;;;;;;;;;;;-144.99;93.15;52280.97;4959678;28;19981;-76
2022/08/31 04:37:55;;;;;;;;;;;;;;;-144.99;93.06;52299.31;4963634;28;20547;-76
2022/08/31 04:40:21;;;;;;;;;;;;;;;-144.99;92.94;52311.53;4962843;28;20402;-75
2022/08/31 04:42:47;;;;;;;;;;;;;;;-144.99;92.69;52248.34;4966880;28;19925;-75
2022/08/31 04:45:14;;;;;;;;;;;;;;;-144.99;92.40;52289.13;4961547;28;19930;-74
2022/08/31 04:47:41;;;;;;;;;;;;;;;-144.99;91.94;52313.56;4963698;28;19926;-78
2022/08/31 04:50:10;;;;;;;;;;;;;;;-144.99;91.37;52268.72;4981518;23;21362;-72
2022/08/31 04:52:37;;;;;;;;;;;;;;;-144.99;91.24;52268.72;4982965;28;20013;-73
2022/08/31 04:55:04;;;;;;;;;;;;;;;-144.99;90.30;52309.50;4986277;28;19926;-73
2022/08/31 04:57:30;;;;;;;;;;;;;;;-144.99;89.60;52254.47;4990655;28;19925;-71
2022/08/31 04:59:57;;;;;;;;;;;;;;;-144.99;89.60;52272.81;4987777;28;19940;-72
2022/08/31 05:02:24;;;;;;;;;;;;;;;-144.99;88.92;52287.06;4642248;28;10000113;-74
2022/08/31 05:04:50;;;;;;;;;;;;;;;-144.99;88.99;52264.66;4971435;28;19930;-74
2022/08/31 05:07:18;;;;;;;;;;;;;;;-144.99;88.41;52244.28;4977323;28;19929;-75
2022/08/31 05:09:44;;;;;;;;;;;;;;;-144.99;87.94;52248.34;4985889;28;20320;-74
2022/08/31 05:12:10;;;;;;;;;;;;;;;-144.99;87.85;52223.88;4990020;28;19929;-75
2022/08/31 05:14:38;;;;;;;;;;;;;;;-144.99;87.75;52248.34;4979190;28;19980;-75
2022/08/31 05:17:05;;;;;;;;;;;;;;;-144.99;87.60;52227.97;4982342;28;20610;-75
2022/08/31 05:19:31;;;;;;;;;;;;;;;-144.99;87.24;52264.66;4981762;28;20482;-73
2022/08/31 05:21:58;;;;;;;;;;;;;;;-144.99;86.91;52268.72;4984832;28;19933;-73
2022/08/31 05:24:25;;;;;;;;;;;;;;;-144.99;86.43;52258.53;4983727;28;19930;-73
2022/08/31 05:26:53;;;;;;;;;;;;;;;-144.99;86.47;52227.97;4988369;28;20495;-73
2022/08/31 05:29:20;;;;;;;;;;;;;;;-144.99;86.40;52244.28;4983843;28;20457;-73
2022/08/31 05:31:47;;;;;;;;;;;;;;;-144.99;86.27;52236.13;4977263;28;19930;-73
2022/08/31 05:34:14;;;;;;;;;;;;;;;-144.99;86.14;52242.22;4980890;28;19930;-73
2022/08/31 05:36:41;;;;;;;;;;;;;;;-144.99;85.78;52236.13;4981053;28;19933;-73
2022/08/31 05:39:10;;;;;;;;;;;;;;;-144.99;85.58;52244.28;4983657;28;20527;-74
2022/08/31 05:41:38;;;;;;;;;;;;;;;-144.99;85.06;52307.47;4982381;28;19926;-73
2022/08/31 05:44:05;;;;;;;;;;;;;;;-144.99;85.03;52256.50;4982319;28;20014;-73
2022/08/31 05:46:32;;;;;;;;;;;;;;;-144.99;84.76;52191.28;4985358;28;20017;-73
2022/08/31 05:48:58;;;;;;;;;;;;;;;-144.99;84.59;52225.94;4975977;28;19926;-74
2022/08/31 05:51:24;;;;;;;;;;;;;;;-144.99;84.40;52191.28;4987096;28;19929;-73
2022/08/31 05:53:51;;;;;;;;;;;;;;;-144.99;84.24;52187.19;4981567;28;20024;-73
2022/08/31 05:56:19;;;;;;;;;;;;;;;-144.99;83.88;52227.97;4988249;28;19934;-73
2022/08/31 05:58:47;;;;;;;;;;;;;;;-144.99;83.43;52236.13;4975320;28;20410;-73
2022/08/31 06:01:15;;;;;;;;;;;;;;;-144.99;82.79;52217.78;4982565;28;20486;-73
2022/08/31 06:03:42;;;;;;;;;;;;;;;-144.99;82.36;52213.69;4978432;28;19929;-73
2022/08/31 06:06:09;;;;;;;;;;;;;;;-144.99;82.12;52219.81;4975843;28;20009;-73
2022/08/31 06:08:35;;;;;;;;;;;;;;;-144.99;81.59;52203.50;4981451;28;19930;-73
2022/08/31 06:11:02;;;;;;;;;;;;;;;-144.99;80.94;52203.50;4991682;28;19936;-74
2022/08/31 06:13:28;;;;;;;;;;;;;;;-144.99;80.25;52193.31;4983940;28;19930;-73
2022/08/31 06:15:57;;;;;;;;;;;;;;;-144.99;79.75;52227.97;4983391;28;19926;-73
2022/08/31 06:18:24;;;;;;;;;;;;;;;-144.99;79.26;52187.19;4989988;28;19934;-74
2022/08/31 06:20:50;;;;;;;;;;;;;;;-144.99;78.73;52221.84;4984481;28;19936;-73
2022/08/31 06:23:17;;;;;;;;;;;;;;;-144.99;78.19;52236.13;4981124;28;19930;-73
2022/08/31 06:25:43;;;;;;;;;;;;;;;-144.99;77.62;52203.50;4977748;28;19944;-73
2022/08/31 06:28:13;;;;;;;;;;;;;;;-144.99;77.07;52177.00;4996608;28;19926;-74
2022/08/31 06:30:39;;;;;;;;;;;;;;;-144.99;76.29;52187.19;4999348;28;19937;-75
2022/08/31 06:33:07;;;;;;;;;;;;;;;-144.99;75.82;52195.34;4999665;28;19925;-73
2022/08/31 06:35:33;;;;;;;;;;;;;;;-144.99;75.00;52195.34;4992192;28;19990;-74
2022/08/31 06:38:00;;;;;;;;;;;;;;;-144.99;74.09;52183.13;4987823;28;20006;-74
2022/08/31 06:40:27;;;;;;;;;;;;;;;-144.99;72.97;52187.19;4983601;28;19993;-73
2022/08/31 06:42:54;;;;;;;;;;;;;;;-144.99;72.38;52174.97;4998370;28;19930;-74
2022/08/31 06:45:20;;;;;;;;;;;;;;;-144.99;71.68;52195.34;4658385;28;10000471;-74
2022/08/31 06:47:47;;;;;;;;;;;;;;;-144.99;70.58;52146.44;5008993;28;19940;-74
2022/08/31 06:50:14;;;;;;;;;;;;;;;-144.99;69.86;52170.91;5003884;28;19953;-74
2022/08/31 06:52:41;;;;;;;;;;;;;;;-144.99;69.27;52174.97;5001419;28;20494;-75
2022/08/31 06:55:08;;;;;;;;;;;;;;;-144.99;68.87;52187.19;5013153;28;19934;-74
2022/08/31 06:57:34;;;;;;;;;;;;;;;-144.99;68.02;52160.72;5014852;28;20012;-74
2022/08/31 07:00:01;;;;;;;;;;;;;;;-144.99;67.59;52138.28;5018042;28;19929;-75
2022/08/31 07:02:27;;;;;;;;;;;;;;;-144.99;67.05;52109.75;5017258;28;19972;-74
2022/08/31 07:04:53;;;;;;;;;;;;;;;-144.99;65.91;52195.34;5018424;28;19914;-75
2022/08/31 07:07:21;;;;;;;;;;;;;;;-144.99;65.48;52134.22;5008052;28;19914;-74
2022/08/31 07:09:48;;;;;;;;;;;;;;;-144.99;65.04;52154.59;5019105;28;19913;-75
2022/08/31 07:12:14;;;;;;;;;;;;;;;-144.99;64.69;52105.69;5003688;28;19930;-74
2022/08/31 07:14:40;;;;;;;;;;;;;;;-144.99;64.64;52101.59;5010433;28;19937;-74
2022/08/31 07:17:07;;;;;;;;;;;;;;;-144.99;64.54;52134.22;5003243;28;19932;-74
2022/08/31 07:19:34;;;;;;;;;;;;;;;-144.99;63.92;52121.97;5001710;28;20008;-74
2022/08/31 07:22:01;;;;;;;;;;;;;;;-144.99;63.38;52162.75;5013135;28;20001;-74
2022/08/31 07:24:30;;;;;;;;;;;;;;;-144.99;62.21;52117.91;5014912;28;19914;-73
2022/08/31 07:26:57;;;;;;;;;;;;;;;-144.99;61.05;52113.84;5005643;28;19929;-74
2022/08/31 07:29:25;;;;;;;;;;;;;;;-144.99;59.82;52117.91;4998947;28;19926;-75
2022/08/31 07:31:51;;;;;;;;;;;;;;;-144.99;59.19;52130.13;4994719;28;19961;-74
2022/08/31 07:34:19;;;;;;;;;;;;;;;-144.99;58.14;52146.44;5015789;28;19926;-75
2022/08/31 07:42:17;;;;;;;;;;;;;;;-144.99;56.88;52095.50;4988225;28;20616;-74
2022/08/31 07:44:47;;;;;;;;;;;;;;;-144.99;56.31;52081.22;4989518;28;19936;-74
2022/08/31 07:47:18;;;;;;;;;;;;;;;-144.99;56.11;52077.16;4986752;28;20582;-73
2022/08/31 07:49:46;;;;;;;;;;;;;;;-144.99;55.55;52146.44;4984316;28;19925;-74
2022/08/31 07:52:14;;;;;;;;;;;;;;;-144.99;55.29;52101.59;4978996;28;19926;-74
2022/08/31 07:54:43;;;;;;;;;;;;;;;-144.99;54.99;52089.38;4977588;28;19929;-75
2022/08/31 07:57:09;;;;;;;;;;;;;;;-144.99;54.29;52089.38;4989341;28;19925;-75
2022/08/31 07:59:38;;;;;;;;;;;;;;;-144.99;53.87;52121.97;4976916;28;19929;-74
2022/08/31 08:02:05;;;;;;;;;;;;;;;-144.99;53.90;52117.91;4985606;28;19937;-75
2022/08/31 08:04:37;;;;;;;;;;;;;;;-144.99;53.51;52093.44;4982015;28;19933;-75
2022/08/31 08:07:04;;;;;;;;;;;;;;;-144.99;53.11;52085.31;4980801;28;19988;-75
2022/08/31 08:09:31;;;;;;;;;;;;;;;-144.99;52.02;52117.91;4983633;28;19930;-75
2022/08/31 08:12:05;;;;;;;;;;;;;;;-144.99;51.94;52081.22;4982509;28;19926;-74
2022/08/31 08:14:31;;;;;;;;;;;;;;;-144.99;51.96;52089.38;4981598;28;20024;-73
2022/08/31 08:16:58;;;;;;;;;;;;;;;-144.99;52.09;52089.38;4985351;28;20025;-75
2022/08/31 08:19:24;;;;;;;;;;;;;;;-144.99;52.08;52130.13;4976750;28;19930;-75
2022/08/31 08:21:51;;;;;;;;;;;;;;;-144.99;51.43;52077.16;4975843;28;20505;-75
2022/08/31 08:24:17;;;;;;;;;;;;;;;-144.99;50.84;52113.84;4985492;28;20776;-76
2022/08/31 08:26:45;;;;;;;;;;;;;;;-144.99;50.17;52066.97;4971461;28;20357;-75
2022/08/31 08:29:13;;;;;;;;;;;;;;;-144.99;49.94;52058.81;4980634;28;19974;-75
2022/08/31 08:31:39;;;;;;;;;;;;;;;-144.99;49.11;52050.66;4978933;28;19936;-75
2022/08/31 08:34:06;;;;;;;;;;;;;;;-144.99;48.98;52060.84;4982739;28;19981;-75
2022/08/31 08:36:34;;;;;;;;;;;;;;;-144.99;48.89;52073.06;5007930;28;20001;-75
2022/08/31 08:39:01;;;;;;;;;;;;;;;-144.99;48.66;52054.72;5000913;28;19941;-76
2022/08/31 08:41:28;;;;;;;;;;;;;;;-144.99;48.62;52077.16;4990360;28;19926;-75
2022/08/31 08:43:57;;;;;;;;;;;;;;;-144.99;47.46;52016.00;4984634;28;20016;-74
2022/08/31 08:46:28;;;;;;;;;;;;;;;-144.99;46.97;52069.00;4986921;28;19930;-75
2022/08/31 08:48:57;;;;;;;;;;;;;;;-144.99;46.54;52101.59;4976568;28;19930;-74
2022/08/31 08:51:25;;;;;;;;;;;;;;;-144.99;46.46;52081.22;4981039;28;19934;-75
2022/08/31 08:53:56;;;;;;;;;;;;;;;-144.99;45.88;52077.16;4969908;28;20586;-75
2022/08/31 08:56:23;;;;;;;;;;;;;;;-144.99;45.97;52093.44;4987147;28;19944;-75
2022/08/31 08:58:49;;;;;;;;;;;;;;;-144.99;45.73;52056.78;4977967;28;19953;-75
2022/08/31 09:01:27;;;;;;;;;;;;;;;-144.99;45.90;52044.53;4984127;28;19936;-75
2022/08/31 09:04:00;;;;;;;;;;;;;;;-144.99;45.08;52079.19;4984282;28;20378;-74
2022/08/31 09:06:30;;;;;;;;;;;;;;;-144.99;44.92;52056.78;4976027;28;20309;-75
2022/08/31 09:09:17;;;;;;;;;;;;;;;-144.99;44.33;52060.84;4987412;28;19977;-75
2022/08/31 09:11:51;;;;;;;;;;;;;;;-144.99;44.29;52032.31;4987883;28;19936;-75
2022/08/31 09:14:24;;;;;;;;;;;;;;;-144.99;43.73;52056.78;4986984;28;19930;-75
2022/08/31 09:16:55;;;;;;;;;;;;;;;-144.99;43.83;52062.88;4986685;28;19926;-75
2022/08/31 09:19:22;;;;;;;;;;;;;;;-144.99;43.57;52052.69;4980219;28;19930;-75
2022/08/31 09:21:50;;;;;;;;;;;;;;;-144.99;43.75;52050.66;4981231;28;20369;-74
2022/08/31 09:24:18;;;;;;;;;;;;;;;-144.99;43.03;52022.13;4987675;28;19926;-75
2022/08/31 09:26:54;;;;;;;;;;;;;;;-144.99;42.33;52073.06;4986635;28;19930;-75
2022/08/31 09:29:23;;;;;;;;;;;;;;;-144.99;42.38;52075.09;4985283;28;20290;-76
2022/08/31 09:31:58;;;;;;;;;;;;;;;-144.99;42.95;52050.66;4976963;28;19930;-75
2022/08/31 09:34:28;;;;;;;;;;;;;;;-144.99;43.15;52060.84;4981674;28;19961;-74
2022/08/31 09:37:10;;;;;;;;;;;;;;;-144.99;42.90;52052.69;4987006;28;19937;-75
2022/08/31 09:39:37;;;;;;;;;;;;;;;-144.99;41.77;52024.16;4987297;28;20627;-75
2022/08/31 09:42:13;;;;;;;;;;;;;;;-144.99;41.30;52044.53;4984979;28;20028;-75
2022/08/31 09:44:41;;;;;;;;;;;;;;;-144.99;41.29;52085.31;4986828;28;19926;-75
2022/08/31 09:47:29;;;;;;;;;;;;;;;-144.99;41.51;52036.38;4984884;28;19926;-75
2022/08/31 09:49:57;;;;;;;;;;;;;;;-144.99;41.29;51993.59;4975662;28;20028;-75
2022/08/31 09:55:13;;;;;;;;;;;;;;;-144.99;39.14;52028.22;4987195;28;20044;-75
2022/08/31 09:57:52;;;;;;;;;;;;;;;-144.99;38.53;51965.06;4986248;28;20017;-74
2022/08/31 10:00:27;;;;;;;;;;;;;;;-144.99;37.65;51967.09;4987237;28;19934;-75
2022/08/31 10:02:57;;;;;;;;;;;;;;;-144.99;36.87;51942.63;4984829;28;20021;-75
2022/08/31 10:05:39;;;;;;;;;;;;;;;-144.99;36.14;51934.50;4987246;28;19965;-74
2022/08/31 10:08:12;;;;;;;;;;;;;;;-144.99;35.54;51954.88;4986953;28;19929;-73
2022/08/31 10:10:42;;;;;;;;;;;;;;;-144.99;34.50;51942.63;4986157;28;19953;-75
2022/08/31 10:13:13;;;;;;;;;;;;;;;-144.99;34.11;51942.63;4973173;28;20019;-75
2022/08/31 10:15:42;;;;;;;;;;;;;;;-144.99;33.62;51924.28;4982296;28;19926;-74
2022/08/31 10:18:12;;;;;;;;;;;;;;;-144.99;32.10;51934.50;4984410;28;19961;-74
2022/08/31 10:20:45;;;;;;;;;;;;;;;-144.99;31.97;51946.72;4978790;28;19930;-74
2022/08/31 10:23:15;;;;;;;;;;;;;;;-144.99;31.56;51910.03;4971012;28;19926;-75
2022/08/31 10:25:45;;;;;;;;;;;;;;;-144.99;32.03;51920.22;4976991;28;19934;-74
2022/08/31 10:28:14;;;;;;;;;;;;;;;-144.99;31.95;51926.34;4983308;28;19949;-76
2022/08/31 10:30:43;;;;;;;;;;;;;;;-144.99;32.14;51861.13;4984346;28;19965;-75
2022/08/31 10:33:14;;;;;;;;;;;;;;;-144.99;31.36;51869.28;4984701;28;20040;-74
2022/08/31 10:35:49;;;;;;;;;;;;;;;-144.99;31.66;51840.75;4977186;28;19926;-74
2022/08/31 10:38:22;;;;;;;;;;;;;;;-144.99;30.11;51873.34;4977661;28;19937;-74
2022/08/31 10:40:50;;;;;;;;;;;;;;;-144.99;29.80;51848.91;4986126;28;19937;-74
2022/08/31 10:43:20;;;;;;;;;;;;;;;-144.99;30.51;51832.59;5001595;28;19933;-74
2022/08/31 10:45:48;;;;;;;;;;;;;;;-144.99;29.66;51852.97;5009628;28;19930;-75
2022/08/31 10:48:16;;;;;;;;;;;;;;;-144.99;29.95;51905.97;4994919;28;19954;-74
2022/08/31 10:50:47;;;;;;;;;;;;;;;-144.99;30.31;51850.94;4993509;28;19934;-74
2022/08/31 10:53:21;;;;;;;;;;;;;;;-144.99;29.83;51795.91;5005546;28;20425;-74
2022/08/31 10:55:51;;;;;;;;;;;;;;;-144.99;30.57;51967.09;4999472;28;19926;-75
2022/08/31 10:58:23;;;;;;;;;;;;;;;-144.99;31.23;51852.97;5007455;28;19926;-76
2022/08/31 11:00:52;;;;;;;;;;;;;;;-144.99;31.15;51857.03;5001525;28;20001;-75
2022/08/31 11:03:28;;;;;;;;;;;;;;;-144.99;31.46;51877.44;5007925;28;19965;-74
2022/08/31 11:06:00;;;;;;;;;;;;;;;-144.99;31.23;51844.81;5008608;28;19922;-74
2022/08/31 11:08:35;;;;;;;;;;;;;;;-144.99;31.04;52003.78;5005782;28;19985;-74
2022/08/31 11:11:05;;;;;;;;;;;;;;;-144.99;31.21;51865.19;5003650;28;19973;-74
2022/08/31 11:13:50;;;;;;;;;;;;;;;-144.99;30.66;51844.81;4997885;28;19968;-75
2022/08/31 11:16:31;;;;;;;;;;;;;;;-144.99;30.60;51804.06;4999904;28;19914;-75
2022/08/31 11:19:12;;;;;;;;;;;;;;;-144.99;30.61;51954.88;5002691;28;19925;-75
2022/08/31 11:22:03;;;;;;;;;;;;;;;-144.99;30.39;51810.16;4999489;28;19938;-75
2022/08/31 11:24:44;;;;;;;;;;;;;;;-144.99;30.36;51791.84;4999654;28;19968;-73
2022/08/31 11:27:22;;;;;;;;;;;;;;;-144.99;30.24;51783.69;4995426;28;19993;-76
2022/08/31 11:29:56;;;;;;;;;;;;;;;-144.99;29.14;51730.69;5008111;28;19961;-74
2022/08/31 11:32:29;;;;;;;;;;;;;;;-144.99;29.44;51767.38;5006820;28;19930;-75
2022/08/31 11:34:57;;;;;;;;;;;;;;;-144.99;29.20;51742.91;5005302;28;19932;-75
2022/08/31 11:37:38;;;;;;;;;;;;;;;-144.99;28.51;51714.41;5001408;28;19985;-76
2022/08/31 11:40:09;;;;;;;;;;;;;;;-144.99;28.69;51726.63;5001615;28;19990;-76
2022/08/31 11:42:59;;;;;;;;;;;;;;;-144.99;28.20;51901.88;4999293;28;19993;-75
2022/08/31 11:45:28;;;;;;;;;;;;;;;-144.99;28.61;51958.94;5005524;28;19933;-77
2022/08/31 11:47:55;;;;;;;;;;;;;;;-144.99;29.28;51958.94;5006391;28;20533;-75
2022/08/31 11:50:55;;;;;;;;;;;;;;;-144.99;29.67;51954.88;4989461;28;20321;-75
2022/08/31 11:53:27;;;;;;;;;;;;;;;-144.99;29.63;51812.22;4987360;28;19926;-76
2022/08/31 11:55:58;;;;;;;;;;;;;;;-144.99;30.38;51903.91;4996779;28;19930;-75
2022/08/31 11:58:31;;;;;;;;;;;;;;;-144.99;30.20;52028.22;4998699;28;19926;-74
2022/08/31 12:01:17;;;;;;;;;;;;;;;-144.99;30.52;51918.19;4996101;28;19938;-74
2022/08/31 12:03:55;;;;;;;;;;;;;;;-144.99;30.61;52060.84;4975870;28;19961;-76
2022/08/31 12:06:41;;;;;;;;;;;;;;;-144.99;31.02;52060.84;4990311;28;19933;-74
2022/08/31 12:09:15;;;;;;;;;;;;;;;-144.99;30.85;51889.66;4999533;28;19965;-73
2022/08/31 12:11:48;;;;;;;;;;;;;;;-144.99;30.54;51840.75;4993166;28;19929;-75
2022/08/31 12:14:19;;;;;;;;;;;;;;;-144.99;30.20;51832.59;4994830;28;19930;-74
2022/08/31 12:16:56;;;;;;;;;;;;;;;-144.99;29.63;51787.75;4993072;28;19949;-75
2022/08/31 12:25:21;;;;;;;;;;;;;;;-144.99;28.85;51967.09;4997166;28;20000;-74
2022/08/31 12:27:56;;;;;;;;;;;;;;;-144.99;28.78;51828.50;4995721;28;19985;-75
2022/08/31 12:30:24;;;;;;;;;;;;;;;-144.99;28.74;51995.63;4999597;28;19926;-74
2022/08/31 12:32:57;;;;;;;;;;;;;;;-144.99;28.80;51995.63;4995554;28;20008;-76
2022/08/31 12:35:24;;;;;;;;;;;;;;;-144.99;29.41;51842.78;4998364;28;19976;-75
2022/08/31 12:37:57;;;;;;;;;;;;;;;-144.99;29.19;51840.75;5003970;28;19934;-75
2022/08/31 12:40:24;;;;;;;;;;;;;;;-144.99;29.15;51995.63;4992590;28;19953;-76
2022/08/31 12:42:58;;;;;;;;;;;;;;;-144.99;29.11;52020.09;4998287;28;19957;-74
2022/08/31 12:45:36;;;;;;;;;;;;;;;-144.99;29.31;51901.88;5005345;28;19926;-75
2022/08/31 12:48:06;;;;;;;;;;;;;;;-144.99;29.31;51836.66;4990542;28;20024;-75
2022/08/31 12:50:36;;;;;;;;;;;;;;;-144.99;29.19;51852.97;5003050;28;20156;-75
2022/08/31 12:53:15;;;;;;;;;;;;;;;-144.99;29.46;51840.75;4999108;28;19977;-75